ADDS METAR Data INFO
IDs: Format: Raw Decoded Include TAF

Data at: 1247 UTC 19 Oct 2017

KS25 191235Z AUTO 00000KT 10SM CLR 02/M02 A2973 RMK AO2
KS25 191215Z AUTO 00000KT 10SM CLR 04/M02 A2972 RMK AO2
KS25 191155Z AUTO 00000KT 10SM CLR 02/M02 A2973 RMK AO2
KS25 191135Z AUTO 00000KT 10SM CLR 03/M02 A2973 RMK AO2
KS25 191115Z AUTO 00000KT 10SM CLR 04/M03 A2974 RMK AO2
KS25 191055Z AUTO 00000KT 10SM CLR 02/M02 A2973 RMK AO2
KS25 191035Z AUTO 00000KT 10SM CLR 03/M03 A2973 RMK AO2
KS25 191015Z AUTO 00000KT 10SM CLR 02/M02 A2974 RMK AO2
KS25 190955Z AUTO 00000KT 10SM CLR 02/M02 A2975 RMK AO2
KS25 190935Z AUTO 00000KT 10SM CLR 02/M02 A2975 RMK AO2
KS25 190915Z AUTO 00000KT 10SM CLR 01/M03 A2975 RMK AO2
KS25 190855Z AUTO 00000KT 10SM CLR 02/M03 A2976 RMK AO2
KS25 190835Z AUTO 14004KT 10SM CLR 04/M03 A2977 RMK AO2
KS25 190815Z AUTO 13007KT 10SM CLR 03/M04 A2977 RMK AO2
KS25 190755Z AUTO 12006KT 10SM CLR 03/M04 A2978 RMK AO2
KS25 190735Z AUTO 13007KT 10SM CLR 03/M04 A2978 RMK AO2
KS25 190715Z AUTO 12007KT 10SM CLR 03/M04 A2979 RMK AO2
KS25 190655Z AUTO 12008KT 10SM CLR 03/M04 A2980 RMK AO2
KS25 190635Z AUTO 11008KT 10SM CLR 02/M04 A2981 RMK AO2
KS25 190615Z AUTO 13006KT 10SM CLR 02/M04 A2982 RMK AO2
KS25 190555Z AUTO 00000KT 10SM CLR 02/M04 A2983 RMK AO2
KS25 190535Z AUTO 13003KT 10SM CLR 03/M04 A2983 RMK AO2
KS25 190515Z AUTO 12004KT 10SM CLR 02/M04 A2984 RMK AO2
KS25 190455Z AUTO 00000KT 10SM CLR 01/M03 A2984 RMK AO2
KS25 190435Z AUTO 00000KT 10SM CLR 02/M03 A2985 RMK AO2
KS25 190415Z AUTO 00000KT 10SM CLR 03/M03 A2985 RMK AO2
KS25 190355Z AUTO 13003KT 10SM CLR 03/M04 A2986 RMK AO2
KS25 190335Z AUTO 13003KT 10SM CLR 03/M04 A2987 RMK AO2
KS25 190315Z AUTO 00000KT 10SM CLR 04/M04 A2987 RMK AO2
KS25 190255Z AUTO 00000KT 10SM CLR 04/M04 A2988 RMK AO2
KS25 190235Z AUTO 00000KT 10SM CLR 03/M03 A2988 RMK AO2
KS25 190215Z AUTO 00000KT 10SM CLR 04/M04 A2989 RMK AO2
KS25 190155Z AUTO 23003KT 10SM CLR 05/M04 A2989 RMK AO2
KS25 190135Z AUTO 20003KT 10SM CLR 06/M04 A2990 RMK AO2
KS25 190115Z AUTO 17006KT 10SM CLR 06/M04 A2990 RMK AO2
KS25 190055Z AUTO 18005KT 10SM CLR 06/M04 A2990 RMK AO2
KS25 190035Z AUTO 21005KT 10SM CLR 07/M04 A2991 RMK AO2
KS25 190015Z AUTO 24004KT 10SM CLR 09/M04 A2991 RMK AO2
KS25 182355Z AUTO 26003KT 10SM CLR 10/M04 A2991 RMK AO2
KS25 182335Z AUTO 25007KT 10SM CLR 12/M05 A2990 RMK AO2
KS25 182315Z AUTO 26008KT 10SM CLR 13/M05 A2990 RMK AO2
KS25 182255Z AUTO 26011KT 10SM CLR 13/M05 A2991 RMK AO2
KS25 182235Z AUTO 27011KT 10SM CLR 13/M05 A2991 RMK AO2
KS25 182215Z AUTO 27012KT 10SM CLR 13/M05 A2991 RMK AO2
KS25 182155Z AUTO 28010G16KT 10SM CLR 14/M06 A2991 RMK AO2
KS25 182135Z AUTO 27014G20KT 10SM CLR 13/M06 A2992 RMK AO2
KS25 182115Z AUTO 26013G19KT 10SM CLR 13/M05 A2992 RMK AO2
KS25 182055Z AUTO 26016G26KT 10SM CLR 13/M06 A2993 RMK AO2
KS25 182035Z AUTO 27017G23KT 10SM CLR 13/M05 A2993 RMK AO2
KS25 182015Z AUTO 27017G23KT 10SM FEW080 13/M05 A2994 RMK AO2
KS25 181955Z AUTO 27017G25KT 10SM FEW080 13/M05 A2995 RMK AO2
KS25 181935Z AUTO 27015G23KT 10SM CLR 13/M05 A2995 RMK AO2
KS25 181915Z AUTO 27016G22KT 10SM CLR 12/M06 A2995 RMK AO2
KS25 181855Z AUTO 27018KT 10SM CLR 12/M05 A2996 RMK AO2
KS25 181835Z AUTO 26018G25KT 10SM CLR 12/M06 A2997 RMK AO2
KS25 181815Z AUTO 27015G25KT 10SM CLR 11/M06 A2997 RMK AO2
KS25 181755Z AUTO 29017G25KT 10SM CLR 11/M06 A2997 RMK AO2
KS25 181735Z AUTO 27016G28KT 10SM CLR 11/M06 A2997 RMK AO2
KS25 181715Z AUTO 27017G23KT 10SM CLR 10/M07 A2997 RMK AO2
KS25 181655Z AUTO 30015G24KT 10SM CLR 10/M07 A2997 RMK AO2
KS25 181635Z AUTO 30018G27KT 10SM CLR 10/M07 A2997 RMK AO2
KS25 181615Z AUTO 30017G26KT 10SM FEW090 09/M07 A2996 RMK AO2
KS25 181555Z AUTO 29014G20KT 10SM CLR 09/M07 A2996 RMK AO2
KS25 181535Z AUTO 30017KT 10SM CLR 08/M07 A2995 RMK AO2
KS25 181515Z AUTO 29016G22KT 10SM CLR 08/M06 A2995 RMK AO2
KS25 181455Z AUTO 29010G18KT 10SM CLR 07/M06 A2995 RMK AO2
KS25 181435Z AUTO 28010KT 10SM CLR 07/M05 A2994 RMK AO2
KS25 181415Z AUTO 27010KT 10SM CLR 06/M05 A2993 RMK AO2
KS25 181355Z AUTO 25007KT 10SM CLR 05/M04 A2993 RMK AO2
KS25 181335Z AUTO 26007KT 10SM CLR 05/M04 A2992 RMK AO2
KS25 181315Z AUTO 26008KT 10SM CLR 05/M04 A2991 RMK AO2
KS25 181255Z AUTO 26009G15KT 10SM CLR 06/M04 A2990 RMK AO2
KS25 181235Z AUTO 27010KT 10SM CLR 06/M04 A2989 RMK AO2
KS25 181215Z AUTO 27011G16KT 10SM CLR 07/M03 A2989 RMK AO2
KS25 181155Z AUTO 29013G18KT 10SM CLR 08/M03 A2988 RMK AO2
KS25 181135Z AUTO 30011G20KT 10SM CLR 08/M03 A2986 RMK AO2
KS25 181115Z AUTO 29014G20KT 10SM CLR 08/M02 A2985 RMK AO2
KS25 181055Z AUTO 30016G22KT 10SM SCT095 09/M02 A2983 RMK AO2
KS25 181035Z AUTO 29014G26KT 10SM SCT095 09/M01 A2982 RMK AO2
KS25 181015Z AUTO 29014G25KT 10SM CLR 09/M00 A2980 RMK AO2
KS25 180955Z AUTO 30013G23KT 10SM CLR 10/00 A2978 RMK AO2
KS25 180935Z AUTO 29012G18KT 10SM CLR 10/00 A2978 RMK AO2
KS25 180915Z AUTO 30015KT 10SM CLR 11/01 A2976 RMK AO2
KS25 180855Z AUTO 29014G19KT 10SM CLR 11/01 A2975 RMK AO2
KS25 180835Z AUTO 31021G36KT 10SM CLR 12/00 A2974 RMK AO2
KS25 180815Z AUTO 29015G24KT 10SM CLR 13/M00 A2972 RMK AO2
KS25 180755Z AUTO 30013G19KT 10SM CLR 13/02 A2970 RMK AO2
KS25 180735Z AUTO 33019G33KT 5SM HZ FEW002 14/01 A2967 RMK AO2
KS25 180715Z AUTO 29018G25KT 10SM CLR 17/M04 A2963 RMK AO2
KS25 180655Z AUTO 27013G19KT 10SM CLR 18/M04 A2960 RMK AO2
KS25 180635Z AUTO 25011G20KT 10SM CLR 18/M04 A2958 RMK AO2
KS25 180615Z AUTO 24018G25KT 10SM CLR 18/M04 A2957 RMK AO2
KS25 180555Z AUTO 24014G20KT 10SM CLR 17/M04 A2955 RMK AO2
KS25 180535Z AUTO 23014KT 10SM CLR 17/M04 A2953 RMK AO2
KS25 180515Z AUTO 23013G18KT 10SM CLR 19/M04 A2952 RMK AO2
KS25 180455Z AUTO 22015KT 10SM CLR 20/M05 A2951 RMK AO2
KS25 180435Z AUTO 22014KT 10SM CLR 19/M05 A2951 RMK AO2
KS25 180415Z AUTO 21010KT 10SM CLR 18/M04 A2951 RMK AO2
KS25 180355Z AUTO 20010KT 10SM CLR 17/M04 A2952 RMK AO2
KS25 180335Z AUTO 20008KT 10SM CLR 15/M04 A2953 RMK AO2
KS25 180315Z AUTO 21006KT 10SM CLR 13/M02 A2954 RMK AO2
KS25 180255Z AUTO 21006KT 10SM CLR 12/M03 A2954 RMK AO2
KS25 180235Z AUTO 21006KT 10SM CLR 14/M03 A2955 RMK AO2
KS25 180215Z AUTO 22006KT 10SM CLR 12/M03 A2956 RMK AO2
KS25 180155Z AUTO 22006KT 10SM CLR 13/M03 A2957 RMK AO2
KS25 180135Z AUTO 21006KT 10SM CLR 12/M03 A2958 RMK AO2
KS25 180115Z AUTO 22006KT 10SM CLR 15/M04 A2959 RMK AO2
KS25 180055Z AUTO 21010KT 10SM CLR 18/M04 A2960 RMK AO2